Ocean Beach, California
Current Conditions -  °F | °C
As of 12:52 AM on Friday 24 Oct 2014 (Local Time) from KNZY Reporting Station
Few Clouds Few Clouds  
Wind Chill: 66°   Ceiling: Unl
Heat Index: 66°   Visibility: 8mi
Dew Point: 61°   Wind: 3mph
Humidity: 84%   Direction: 340°NNW
Pressure: 29.94"   Gusts: NA
Location:  32.741°N, 117.243°W
Report Text: KNZY 240752Z 34003KT 8SM FEW008 FEW220 19/16 A2994 RMK AO2 SLP140 T01890161 402500161 $
Loading
Personal Weather Stations






























Interactive Weather Map
Tropical Storm Tracking
New forecast layout! Learn more

10-Day Weather Forecast

Advertisements
Track Severe Weather on mobile